Time;durP1;ratioP1;P1;durP2;ratioP2;P2;SDS_P1;SDS_P2;PMS_P1;PMS_P2;Temp;Humidity;BMP_temperature;BMP_pressure;BME280_temperature;BME280_humidity;BME280_pressure;Samples;Min_cycle;Max_cycle;Signal;HPM_P1;HPM_P2
2023/03/25 07:40:28;;;;;;;0.60;0.60;;;;;;;;;;5705747;23;20626;-64
2023/03/25 07:42:56;;;;;;;0.77;0.60;;;;;;;;;;4974480;28;20223;-63
2023/03/25 07:45:24;;;;;;;0.70;0.70;;;;;;;;;;4974896;28;20206;-63
2023/03/25 07:47:52;;;;;;;1.10;0.80;;;;;;;;;;4974740;28;20209;-63
2023/03/25 07:50:19;;;;;;;4.18;0.70;;;;;;;;;;4974391;28;20710;-64
2023/03/25 07:52:46;;;;;;;2.05;0.70;;;;;;;;;;4975133;28;20342;-64
2023/03/25 07:55:13;;;;;;;1.92;0.73;;;;;;;;;;4974309;28;20697;-64
2023/03/25 07:57:40;;;;;;;0.60;0.60;;;;;;;;;;4974457;28;20210;-64
2023/03/25 08:00:10;;;;;;;0.70;0.65;;;;;;;;;;4974541;28;20223;-63
2023/03/25 08:02:38;;;;;;;2.42;0.90;;;;;;;;;;4974564;28;20199;-64
2023/03/25 08:05:05;;;;;;;1.00;0.75;;;;;;;;;;4974549;28;20273;-63
2023/03/25 08:07:32;;;;;;;0.85;0.80;;;;;;;;;;4974508;28;20203;-63
2023/03/25 08:09:59;;;;;;;1.40;1.05;;;;;;;;;;4974385;28;20246;-64
2023/03/25 08:12:26;;;;;;;1.05;0.63;;;;;;;;;;4974017;28;20702;-64
2023/03/25 08:14:53;;;;;;;1.38;0.80;;;;;;;;;;4974387;28;20203;-64
2023/03/25 08:17:22;;;;;;;1.98;0.73;;;;;;;;;;4974056;28;20620;-64
2023/03/25 08:19:49;;;;;;;4.20;0.80;;;;;;;;;;4974001;28;20707;-64
2023/03/25 08:22:16;;;;;;;2.28;0.70;;;;;;;;;;4974381;28;20195;-64
2023/03/25 08:24:43;;;;;;;2.47;0.90;;;;;;;;;;4974570;28;20210;-64
2023/03/25 08:27:10;;;;;;;0.63;0.60;;;;;;;;;;4974370;28;20199;-64
2023/03/25 08:29:38;;;;;;;1.75;0.85;;;;;;;;;;4974311;28;20208;-65
2023/03/25 08:32:05;;;;;;;1.95;0.63;;;;;;;;;;4974333;28;20247;-65
2023/03/25 08:34:38;;;;;;;0.65;0.60;;;;;;;;;;4974257;28;20215;-65
2023/03/25 08:37:06;;;;;;;0.60;0.60;;;;;;;;;;4974410;28;20211;-63
2023/03/25 08:39:38;;;;;;;2.10;0.70;;;;;;;;;;4979675;28;20211;-63
2023/03/25 08:42:05;;;;;;;0.60;0.60;;;;;;;;;;4979665;28;20238;-63
2023/03/25 08:44:32;;;;;;;0.57;0.50;;;;;;;;;;4977923;28;20187;-63
2023/03/25 08:46:59;;;;;;;2.90;0.52;;;;;;;;;;4978166;28;20211;-64
2023/03/25 08:49:26;;;;;;;0.68;0.68;;;;;;;;;;4977723;28;20691;-63
2023/03/25 08:51:56;;;;;;;1.80;0.80;;;;;;;;;;4977835;28;20227;-63
2023/03/25 08:54:23;;;;;;;1.13;1.02;;;;;;;;;;4977730;28;20184;-63
2023/03/25 08:56:50;;;;;;;1.60;0.70;;;;;;;;;;4977603;28;20214;-63
2023/03/25 08:59:17;;;;;;;0.85;0.65;;;;;;;;;;4977092;28;20682;-64
2023/03/25 09:01:44;;;;;;;1.45;0.70;;;;;;;;;;4977346;28;20630;-63
2023/03/25 09:04:12;;;;;;;2.58;1.17;;;;;;;;;;4976981;28;20207;-63
2023/03/25 09:06:39;;;;;;;0.90;0.70;;;;;;;;;;4977045;28;20203;-63
2023/03/25 09:09:09;;;;;;;2.95;0.80;;;;;;;;;;4978159;28;20290;-64
2023/03/25 09:11:36;;;;;;;2.83;1.00;;;;;;;;;;4976802;28;20754;-63
2023/03/25 09:14:04;;;;;;;1.80;0.82;;;;;;;;;;4977085;28;20282;-63
2023/03/25 09:16:31;;;;;;;1.00;0.80;;;;;;;;;;4976845;28;20774;-63
2023/03/25 09:18:58;;;;;;;0.50;0.50;;;;;;;;;;4977005;28;20199;-63
2023/03/25 09:21:25;;;;;;;0.50;0.50;;;;;;;;;;4976879;28;20227;-63
2023/03/25 09:23:52;;;;;;;0.50;0.50;;;;;;;;;;4976955;28;20211;-63
2023/03/25 09:26:21;;;;;;;0.50;0.50;;;;;;;;;;4976563;28;20542;-63
2023/03/25 09:28:48;;;;;;;1.45;0.75;;;;;;;;;;4976977;28;20210;-63
2023/03/25 09:31:16;;;;;;;0.30;0.30;;;;;;;;;;4977558;28;20236;-64
2023/03/25 09:33:43;;;;;;;0.40;0.40;;;;;;;;;;4977392;28;20215;-63
2023/03/25 09:36:10;;;;;;;0.70;0.50;;;;;;;;;;4976999;28;20587;-64
2023/03/25 09:38:37;;;;;;;0.30;0.30;;;;;;;;;;4977049;28;20607;-63
2023/03/25 09:41:05;;;;;;;0.30;0.30;;;;;;;;;;4976667;28;20230;-63
2023/03/25 09:43:40;;;;;;;0.30;0.30;;;;;;;;;;4976840;28;20214;-64
2023/03/25 09:46:09;;;;;;;0.43;0.43;;;;;;;;;;4976776;28;20290;-62
2023/03/25 09:48:37;;;;;;;0.40;0.40;;;;;;;;;;4978185;28;20254;-63
2023/03/25 09:51:05;;;;;;;0.40;0.40;;;;;;;;;;4978782;28;20317;-63
2023/03/25 09:53:36;;;;;;;0.40;0.40;;;;;;;;;;4979360;28;20659;-64
2023/03/25 09:56:04;;;;;;;0.32;0.32;;;;;;;;;;4978678;28;20693;-63
2023/03/25 09:58:38;;;;;;;0.43;0.43;;;;;;;;;;4977037;28;20218;-62
2023/03/25 10:01:12;;;;;;;0.55;0.40;;;;;;;;;;4976143;28;20273;-63
2023/03/25 10:03:45;;;;;;;0.30;0.30;;;;;;;;;;4975753;28;20636;-63
2023/03/25 10:06:16;;;;;;;0.22;0.22;;;;;;;;;;4976023;28;20191;-63
2023/03/25 10:08:47;;;;;;;0.30;0.30;;;;;;;;;;4976016;28;20191;-63
2023/03/25 10:11:19;;;;;;;0.30;0.30;;;;;;;;;;4975715;28;20231;-63
2023/03/25 10:13:50;;;;;;;0.65;0.40;;;;;;;;;;4975943;28;20271;-63
2023/03/25 10:16:23;;;;;;;0.70;0.70;;;;;;;;;;4975895;28;20191;-63
2023/03/25 10:18:57;;;;;;;0.30;0.30;;;;;;;;;;4975925;28;20192;-63
2023/03/25 10:21:26;;;;;;;0.30;0.30;;;;;;;;;;4976249;28;20216;-63
2023/03/25 10:23:59;;;;;;;0.20;0.20;;;;;;;;;;4975935;28;20254;-63
2023/03/25 10:26:28;;;;;;;0.30;0.30;;;;;;;;;;4975724;28;20219;-63
2023/03/25 10:28:58;;;;;;;0.28;0.28;;;;;;;;;;4975853;28;20211;-63
2023/03/25 10:31:27;;;;;;;0.30;0.30;;;;;;;;;;4975552;28;20235;-63
2023/03/25 10:33:55;;;;;;;0.30;0.30;;;;;;;;;;4975793;28;20203;-63
2023/03/25 10:36:28;;;;;;;0.20;0.20;;;;;;;;;;4975722;28;20567;-63
2023/03/25 10:38:55;;;;;;;0.30;0.30;;;;;;;;;;4975723;28;20191;-65
2023/03/25 10:41:26;;;;;;;0.32;0.32;;;;;;;;;;4975444;28;20219;-63
2023/03/25 10:43:54;;;;;;;0.40;0.40;;;;;;;;;;4975145;28;20239;-63
2023/03/25 10:46:27;;;;;;;0.40;0.40;;;;;;;;;;4975462;28;20225;-63
2023/03/25 10:48:54;;;;;;;0.38;0.30;;;;;;;;;;4975410;28;20188;-63
2023/03/25 10:51:23;;;;;;;0.40;0.40;;;;;;;;;;4975179;28;20227;-62
2023/03/25 10:53:52;;;;;;;0.45;0.30;;;;;;;;;;4975581;28;20235;-62
2023/03/25 10:56:20;;;;;;;0.30;0.30;;;;;;;;;;4975353;28;20207;-62
2023/03/25 10:58:49;;;;;;;1.88;0.30;;;;;;;;;;4975244;28;20208;-63
2023/03/25 11:01:17;;;;;;;0.30;0.30;;;;;;;;;;4974451;28;20318;-63
2023/03/25 11:03:47;;;;;;;0.28;0.28;;;;;;;;;;4975212;28;20194;-63
2023/03/25 11:06:21;;;;;;;0.30;0.30;;;;;;;;;;4975666;28;20199;-64
2023/03/25 11:08:57;;;;;;;0.30;0.30;;;;;;;;;;4975064;28;20192;-63
2023/03/25 11:11:31;;;;;;;0.30;0.30;;;;;;;;;;4974931;28;20231;-64
2023/03/25 11:13:59;;;;;;;1.85;0.30;;;;;;;;;;4975733;28;20641;-63
2023/03/25 11:16:27;;;;;;;0.20;0.20;;;;;;;;;;4974972;28;20258;-64
2023/03/25 11:18:55;;;;;;;0.30;0.30;;;;;;;;;;4975343;28;20258;-63
2023/03/25 11:21:22;;;;;;;0.40;0.40;;;;;;;;;;4974845;28;20227;-62
2023/03/25 11:23:51;;;;;;;0.30;0.30;;;;;;;;;;4975132;28;20573;-63
2023/03/25 11:26:19;;;;;;;0.52;0.47;;;;;;;;;;4974824;28;20302;-62
2023/03/25 11:28:48;;;;;;;0.40;0.40;;;;;;;;;;4975145;28;20203;-62
2023/03/25 11:31:17;;;;;;;0.30;0.30;;;;;;;;;;4974456;28;20219;-63
2023/03/25 11:33:45;;;;;;;0.30;0.30;;;;;;;;;;4974828;28;20214;-63
2023/03/25 11:36:27;;;;;;;0.30;0.30;;;;;;;;;;4974500;28;20658;-63
2023/03/25 11:38:57;;;;;;;0.75;0.50;;;;;;;;;;4974732;28;20191;-63
2023/03/25 11:41:28;;;;;;;1.35;0.50;;;;;;;;;;4974415;28;20223;-63
2023/03/25 11:43:55;;;;;;;2.63;0.55;;;;;;;;;;4974499;28;20211;-63
2023/03/25 11:46:23;;;;;;;0.45;0.45;;;;;;;;;;4974645;28;20214;-63
2023/03/25 11:48:50;;;;;;;0.85;0.40;;;;;;;;;;4974727;28;20207;-63
2023/03/25 11:51:20;;;;;;;0.30;0.30;;;;;;;;;;4974548;28;20227;-63
2023/03/25 11:53:50;;;;;;;0.43;0.40;;;;;;;;;;4974878;28;20188;-63
2023/03/25 11:56:21;;;;;;;0.40;0.40;;;;;;;;;;4974504;28;20258;-63
2023/03/25 11:58:49;;;;;;;0.95;0.40;;;;;;;;;;4975051;28;20227;-63
2023/03/25 12:01:22;;;;;;;0.98;0.60;;;;;;;;;;4974795;28;20226;-63
2023/03/25 12:03:50;;;;;;;0.47;0.47;;;;;;;;;;4974750;28;20188;-64
2023/03/25 12:06:18;;;;;;;1.02;0.60;;;;;;;;;;4974604;28;20298;-63
2023/03/25 12:08:51;;;;;;;0.60;0.60;;;;;;;;;;4974748;28;20212;-63
2023/03/25 12:11:20;;;;;;;1.08;0.70;;;;;;;;;;4975139;28;20223;-63
2023/03/25 12:13:54;;;;;;;1.50;0.50;;;;;;;;;;4978231;28;20306;-63
2023/03/25 12:16:26;;;;;;;5.75;0.80;;;;;;;;;;4978413;28;20576;-63
2023/03/25 12:18:58;;;;;;;1.55;0.50;;;;;;;;;;4978143;28;20192;-63
2023/03/25 12:21:36;;;;;;;0.85;0.55;;;;;;;;;;4978145;28;20227;-63
2023/03/25 12:24:10;;;;;;;0.60;0.60;;;;;;;;;;4978173;28;20558;-64
2023/03/25 12:26:40;;;;;;;0.40;0.40;;;;;;;;;;4977991;28;20190;-64
2023/03/25 12:29:11;;;;;;;0.85;0.50;;;;;;;;;;4978295;28;20195;-63
2023/03/25 12:31:43;;;;;;;0.77;0.60;;;;;;;;;;4977857;28;20227;-63
2023/03/25 12:34:15;;;;;;;0.50;0.50;;;;;;;;;;4977901;28;20187;-63
2023/03/25 12:36:48;;;;;;;0.73;0.50;;;;;;;;;;4977891;28;20188;-63
2023/03/25 12:39:24;;;;;;;0.40;0.40;;;;;;;;;;4977758;28;20191;-63
2023/03/25 12:41:57;;;;;;;1.23;0.40;;;;;;;;;;4977644;28;20562;-63
2023/03/25 12:44:33;;;;;;;1.15;0.50;;;;;;;;;;4977576;28;20191;-63
2023/03/25 12:47:11;;;;;;;0.40;0.40;;;;;;;;;;4977248;28;20532;-63
2023/03/25 12:49:50;;;;;;;0.30;0.30;;;;;;;;;;4977427;28;20190;-63
2023/03/25 12:52:19;;;;;;;1.17;0.40;;;;;;;;;;4977083;28;20693;-62
2023/03/25 12:54:54;;;;;;;0.20;0.20;;;;;;;;;;4977446;28;20214;-62
2023/03/25 12:57:28;;;;;;;0.40;0.40;;;;;;;;;;4977478;28;20603;-63
2023/03/25 13:00:06;;;;;;;0.38;0.30;;;;;;;;;;4977462;28;20251;-63
2023/03/25 13:02:54;;;;;;;1.08;0.40;;;;;;;;;;4977267;28;20250;-63
2023/03/25 13:05:23;;;;;;;0.30;0.30;;;;;;;;;;4969410;28;20624;-63
2023/03/25 13:07:53;;;;;;;2.67;0.38;;;;;;;;;;4977133;28;20203;-63
2023/03/25 13:10:22;;;;;;;0.30;0.30;;;;;;;;;;4977097;28;20250;-62
2023/03/25 13:12:50;;;;;;;0.25;0.25;;;;;;;;;;4977016;28;20219;-63
2023/03/25 13:15:18;;;;;;;0.30;0.30;;;;;;;;;;4976745;28;20677;-62
2023/03/25 13:17:47;;;;;;;0.30;0.30;;;;;;;;;;4977058;28;20613;-64
2023/03/25 13:20:16;;;;;;;0.30;0.30;;;;;;;;;;4976997;28;20274;-63
2023/03/25 13:22:45;;;;;;;1.10;0.40;;;;;;;;;;4976886;28;20199;-63
2023/03/25 13:25:19;;;;;;;0.35;0.35;;;;;;;;;;4976944;28;20208;-63
2023/03/25 13:27:49;;;;;;;0.45;0.45;;;;;;;;;;4976804;28;20626;-63
2023/03/25 13:30:19;;;;;;;0.68;0.50;;;;;;;;;;4976665;28;20223;-63
2023/03/25 13:32:49;;;;;;;0.40;0.40;;;;;;;;;;4976692;28;20642;-63
2023/03/25 13:35:18;;;;;;;0.40;0.40;;;;;;;;;;4976681;28;20200;-63
2023/03/25 13:37:46;;;;;;;0.70;0.40;;;;;;;;;;4976663;28;20210;-63
2023/03/25 13:40:23;;;;;;;0.40;0.40;;;;;;;;;;4976988;28;20227;-62
2023/03/25 13:42:54;;;;;;;0.30;0.30;;;;;;;;;;4976322;28;20207;-62
2023/03/25 13:45:22;;;;;;;0.85;0.43;;;;;;;;;;4976583;28;20219;-62
2023/03/25 13:47:52;;;;;;;0.20;0.20;;;;;;;;;;4976557;28;20258;-62
2023/03/25 13:50:24;;;;;;;0.35;0.30;;;;;;;;;;4976296;28;20675;-63
2023/03/25 13:52:54;;;;;;;0.30;0.30;;;;;;;;;;4976370;28;20208;-63
2023/03/25 13:55:23;;;;;;;0.45;0.40;;;;;;;;;;4976767;28;20207;-64
2023/03/25 13:58:04;;;;;;;0.63;0.32;;;;;;;;;;4976224;28;20219;-64
2023/03/25 14:00:47;;;;;;;0.40;0.40;;;;;;;;;;4976196;28;20283;-64
2023/03/25 14:03:32;;;;;;;1.17;0.40;;;;;;;;;;4976652;28;20188;-65
2023/03/25 14:06:17;;;;;;;0.85;0.40;;;;;;;;;;4976120;28;20529;-64
2023/03/25 14:08:59;;;;;;;0.95;0.60;;;;;;;;;;4980515;28;20573;-63
2023/03/25 14:11:28;;;;;;;0.38;0.35;;;;;;;;;;4975898;28;20583;-63
2023/03/25 14:13:58;;;;;;;0.80;0.38;;;;;;;;;;4979035;28;20724;-63
2023/03/25 14:16:27;;;;;;;1.95;0.45;;;;;;;;;;4980819;28;20198;-64
2023/03/25 14:18:56;;;;;;;1.55;0.50;;;;;;;;;;4977097;28;20262;-64
2023/03/25 14:21:32;;;;;;;6.32;0.50;;;;;;;;;;4975450;28;20726;-64
2023/03/25 15:32:04;;;;;;;0.95;0.55;;;;;;;;;;5848424;23;20226;-65
2023/03/25 15:34:40;;;;;;;3.08;1.23;;;;;;;;;;4974302;28;20238;-65
2023/03/25 15:37:15;;;;;;;1.70;0.88;;;;;;;;;;4974723;28;20198;-64
2023/03/25 15:39:51;;;;;;;2.65;0.80;;;;;;;;;;4974813;28;20195;-63
2023/03/25 15:42:27;;;;;;;0.82;0.63;;;;;;;;;;4974630;28;20227;-63
2023/03/25 15:45:27;;;;;;;3.25;0.70;;;;;;;;;;4997600;23;20226;-64
2023/03/25 15:48:12;;;;;;;1.38;0.82;;;;;;;;;;4899695;29;20195;-64
2023/03/25 15:50:44;;;;;;;2.53;0.68;;;;;;;;;;4900004;29;20705;-64
2023/03/25 15:53:32;;;;;;;3.88;1.15;;;;;;;;;;4946822;28;20227;-64
2023/03/25 15:56:01;;;;;;;1.00;0.60;;;;;;;;;;4978040;28;20706;-64
2023/03/25 15:58:33;;;;;;;0.70;0.70;;;;;;;;;;4978386;28;20207;-64
2023/03/25 16:01:04;;;;;;;2.40;0.82;;;;;;;;;;4978465;28;20207;-64
2023/03/25 16:03:33;;;;;;;3.13;0.73;;;;;;;;;;4978388;28;20184;-64
2023/03/25 16:06:03;;;;;;;1.75;0.73;;;;;;;;;;4978853;28;20223;-64
2023/03/25 16:08:32;;;;;;;2.80;0.70;;;;;;;;;;4978472;28;20210;-64
2023/03/25 16:11:14;;;;;;;2.17;0.75;;;;;;;;;;4978044;28;20748;-65
2023/03/25 16:13:41;;;;;;;7.25;4.53;;;;;;;;;;4978253;28;20236;-65
2023/03/25 16:16:09;;;;;;;1.65;1.10;;;;;;;;;;4978272;28;20227;-65
2023/03/25 16:18:36;;;;;;;2.20;0.90;;;;;;;;;;4977885;28;20675;-65
2023/03/25 16:21:05;;;;;;;2.22;1.02;;;;;;;;;;4978138;28;20206;-64
2023/03/25 16:23:32;;;;;;;3.63;1.73;;;;;;;;;;4978092;28;20211;-64
2023/03/25 16:25:59;;;;;;;4.25;2.08;;;;;;;;;;4978041;28;20253;-64
2023/03/25 16:28:28;;;;;;;3.67;1.70;;;;;;;;;;4978098;28;20192;-65
2023/03/25 16:30:56;;;;;;;3.53;2.10;;;;;;;;;;4977854;28;20207;-64
2023/03/25 16:33:26;;;;;;;3.17;1.70;;;;;;;;;;4978076;28;20215;-63
2023/03/25 16:35:55;;;;;;;3.35;1.40;;;;;;;;;;4978109;28;20223;-63
2023/03/25 16:38:24;;;;;;;2.28;1.00;;;;;;;;;;4977892;28;20604;-64
2023/03/25 16:40:52;;;;;;;0.80;0.80;;;;;;;;;;4977907;28;20191;-64
2023/03/25 16:43:20;;;;;;;0.70;0.70;;;;;;;;;;4977740;28;20670;-64
2023/03/25 16:45:49;;;;;;;2.20;0.80;;;;;;;;;;4977612;28;20231;-63
2023/03/25 16:48:17;;;;;;;0.63;0.52;;;;;;;;;;4977522;28;20224;-64
2023/03/25 16:50:46;;;;;;;3.40;0.68;;;;;;;;;;4977577;28;20576;-64
2023/03/25 16:53:13;;;;;;;1.85;0.88;;;;;;;;;;4977530;28;20232;-64
2023/03/25 16:55:47;;;;;;;0.40;0.40;;;;;;;;;;4977585;28;20231;-65
2023/03/25 16:58:16;;;;;;;0.52;0.52;;;;;;;;;;4976527;28;20195;-64
2023/03/25 17:00:44;;;;;;;0.80;0.75;;;;;;;;;;4977532;28;20199;-63
2023/03/25 17:03:13;;;;;;;0.93;0.50;;;;;;;;;;4977587;28;20230;-65
2023/03/25 17:05:50;;;;;;;0.65;0.63;;;;;;;;;;4977098;28;20769;-64
2023/03/25 17:08:18;;;;;;;0.45;0.45;;;;;;;;;;4977375;28;20184;-64
2023/03/25 17:10:48;;;;;;;0.70;0.55;;;;;;;;;;4977222;28;20207;-63
2023/03/25 17:13:19;;;;;;;1.60;0.68;;;;;;;;;;4977208;28;20203;-63
2023/03/25 17:15:47;;;;;;;0.30;0.30;;;;;;;;;;4976778;28;20223;-64
2023/03/25 17:18:16;;;;;;;0.50;0.40;;;;;;;;;;4977116;28;20231;-63
2023/03/25 17:20:44;;;;;;;0.50;0.32;;;;;;;;;;4977143;28;20211;-63
2023/03/25 17:23:21;;;;;;;1.70;0.40;;;;;;;;;;4976933;28;20231;-63
2023/03/25 17:25:51;;;;;;;1.48;0.52;;;;;;;;;;4976544;28;20663;-64
2023/03/25 17:28:29;;;;;;;0.50;0.50;;;;;;;;;;4976867;28;20188;-63
2023/03/25 17:30:56;;;;;;;0.75;0.63;;;;;;;;;;4976920;28;20201;-64
2023/03/25 17:33:32;;;;;;;0.80;0.63;;;;;;;;;;4976682;28;20227;-62
2023/03/25 17:36:00;;;;;;;1.58;0.80;;;;;;;;;;4977145;28;20219;-64
2023/03/25 17:38:29;;;;;;;1.65;0.60;;;;;;;;;;4976478;28;20203;-63
2023/03/25 17:41:02;;;;;;;1.90;1.23;;;;;;;;;;4976755;28;20232;-65
2023/03/25 17:43:30;;;;;;;0.93;0.60;;;;;;;;;;4977251;28;20195;-63
2023/03/25 17:45:59;;;;;;;0.60;0.50;;;;;;;;;;4976247;28;20234;-63
2023/03/25 17:48:26;;;;;;;1.25;0.63;;;;;;;;;;4976600;28;20207;-64
2023/03/25 17:50:54;;;;;;;0.60;0.60;;;;;;;;;;4976280;28;20555;-64
2023/03/25 17:53:21;;;;;;;1.17;0.57;;;;;;;;;;4976924;28;20223;-63
2023/03/25 17:55:48;;;;;;;0.65;0.60;;;;;;;;;;4976130;28;20706;-63
2023/03/25 17:58:17;;;;;;;0.77;0.77;;;;;;;;;;4976318;28;20207;-64
2023/03/25 18:00:45;;;;;;;0.57;0.57;;;;;;;;;;4976373;28;20207;-64
2023/03/25 18:03:13;;;;;;;0.70;0.70;;;;;;;;;;4976296;28;20306;-64
2023/03/25 18:05:40;;;;;;;0.60;0.60;;;;;;;;;;4976240;28;20277;-64
2023/03/25 18:08:10;;;;;;;1.65;1.63;;;;;;;;;;4976155;28;20612;-64
2023/03/25 18:10:38;;;;;;;1.30;1.30;;;;;;;;;;4975873;28;20215;-65
2023/03/25 18:13:05;;;;;;;1.38;1.27;;;;;;;;;;4976041;28;20206;-64
2023/03/25 18:15:33;;;;;;;1.50;1.40;;;;;;;;;;4975988;28;20219;-64
2023/03/25 18:18:00;;;;;;;3.85;3.00;;;;;;;;;;4975837;28;20675;-64
2023/03/25 18:20:29;;;;;;;5.93;4.10;;;;;;;;;;4976006;28;20203;-64
2023/03/25 18:22:56;;;;;;;10.18;5.70;;;;;;;;;;4976145;28;20209;-63
2023/03/25 18:25:23;;;;;;;11.32;5.43;;;;;;;;;;4975777;28;20242;-64
2023/03/25 18:27:52;;;;;;;10.40;6.15;;;;;;;;;;4975869;28;20290;-63
2023/03/25 18:30:22;;;;;;;4.25;3.25;;;;;;;;;;4975843;28;20234;-63
2023/03/25 18:32:50;;;;;;;5.72;3.58;;;;;;;;;;4975737;28;20243;-64
2023/03/25 18:35:17;;;;;;;6.18;3.72;;;;;;;;;;4975343;28;20267;-64
2023/03/25 18:37:47;;;;;;;5.93;3.22;;;;;;;;;;4975345;28;20671;-64
2023/03/25 18:40:16;;;;;;;2.95;2.03;;;;;;;;;;4975544;28;20294;-65
2023/03/25 18:42:43;;;;;;;3.50;2.28;;;;;;;;;;4975503;28;20207;-64
2023/03/25 18:45:11;;;;;;;3.33;2.17;;;;;;;;;;4975108;28;20785;-64
2023/03/25 18:47:38;;;;;;;2.78;2.40;;;;;;;;;;4975477;28;20207;-65
2023/03/25 18:50:13;;;;;;;3.75;2.30;;;;;;;;;;4975371;28;20207;-64
2023/03/25 18:52:40;;;;;;;4.50;2.58;;;;;;;;;;4975478;28;20187;-64
2023/03/25 18:55:08;;;;;;;4.10;2.60;;;;;;;;;;4975221;28;20237;-65
2023/03/25 18:57:35;;;;;;;4.78;2.50;;;;;;;;;;4975361;28;20291;-64
2023/03/25 19:00:07;;;;;;;3.83;2.67;;;;;;;;;;4975374;28;20206;-64
2023/03/25 19:02:34;;;;;;;4.00;2.55;;;;;;;;;;4975352;28;20188;-64
2023/03/25 19:05:01;;;;;;;5.40;2.97;;;;;;;;;;4975217;28;20297;-64
2023/03/25 19:07:29;;;;;;;5.35;2.75;;;;;;;;;;4975348;28;20207;-64
2023/03/25 19:09:56;;;;;;;7.95;3.47;;;;;;;;;;4975349;28;20203;-64
2023/03/25 19:12:23;;;;;;;8.38;3.30;;;;;;;;;;4974926;28;20679;-64
2023/03/25 19:14:50;;;;;;;3.72;2.33;;;;;;;;;;4974639;28;20695;-64
2023/03/25 19:17:17;;;;;;;5.63;3.08;;;;;;;;;;4974735;28;20210;-64
2023/03/25 19:19:45;;;;;;;5.38;2.88;;;;;;;;;;4975008;28;20207;-64
2023/03/25 19:22:15;;;;;;;5.63;2.83;;;;;;;;;;4974889;28;20532;-63
2023/03/25 19:24:43;;;;;;;4.05;2.90;;;;;;;;;;4974912;28;20230;-63
2023/03/25 19:27:10;;;;;;;6.10;2.38;;;;;;;;;;4974958;28;20207;-63
2023/03/25 19:29:37;;;;;;;7.03;3.95;;;;;;;;;;4974931;28;20544;-63
2023/03/25 19:32:04;;;;;;;3.97;2.50;;;;;;;;;;4974894;28;20203;-64
2023/03/25 19:34:32;;;;;;;2.67;2.47;;;;;;;;;;4974668;28;20234;-63
2023/03/25 19:37:03;;;;;;;2.55;2.30;;;;;;;;;;4974931;28;20207;-64
2023/03/25 19:39:31;;;;;;;16.95;8.00;;;;;;;;;;4974555;28;20649;-64
2023/03/25 19:41:59;;;;;;;12.23;7.22;;;;;;;;;;4974798;28;20205;-64
2023/03/25 19:44:26;;;;;;;11.27;6.18;;;;;;;;;;4974509;28;20290;-64
2023/03/25 19:46:53;;;;;;;13.30;5.95;;;;;;;;;;4974766;28;20188;-64
2023/03/25 19:49:20;;;;;;;8.07;5.00;;;;;;;;;;4974709;28;20203;-64
2023/03/25 19:51:47;;;;;;;5.38;4.00;;;;;;;;;;4974764;28;20207;-63
2023/03/25 19:54:14;;;;;;;4.97;3.88;;;;;;;;;;4974579;28;20223;-64
2023/03/25 19:56:42;;;;;;;6.45;4.10;;;;;;;;;;4974664;28;20297;-65
2023/03/25 19:59:10;;;;;;;4.05;3.25;;;;;;;;;;4974656;28;20242;-64
2023/03/25 20:01:37;;;;;;;5.25;3.58;;;;;;;;;;4974723;28;20206;-64
2023/03/25 20:04:05;;;;;;;7.25;3.58;;;;;;;;;;4974477;28;20207;-64
2023/03/25 20:06:32;;;;;;;4.43;2.95;;;;;;;;;;4974597;28;20282;-65
2023/03/25 20:08:59;;;;;;;3.63;2.78;;;;;;;;;;4974647;28;20214;-65
2023/03/25 20:11:26;;;;;;;5.78;2.83;;;;;;;;;;4974470;28;20188;-64
2023/03/25 20:13:53;;;;;;;3.67;2.63;;;;;;;;;;4974217;28;20206;-64
2023/03/25 20:16:22;;;;;;;2.22;1.60;;;;;;;;;;4974497;28;20203;-64
2023/03/25 20:18:49;;;;;;;1.95;1.50;;;;;;;;;;4974769;28;20219;-64
2023/03/25 20:21:16;;;;;;;2.05;1.35;;;;;;;;;;4975182;28;20226;-64
2023/03/25 20:23:43;;;;;;;4.68;2.78;;;;;;;;;;4975875;28;20574;-65
2023/03/25 20:26:10;;;;;;;1.75;1.63;;;;;;;;;;4976449;28;20223;-63
2023/03/25 20:28:37;;;;;;;3.03;2.15;;;;;;;;;;4976475;28;20210;-64
2023/03/25 20:31:15;;;;;;;1.95;1.85;;;;;;;;;;4975706;28;20211;-64
2023/03/25 20:33:43;;;;;;;1.50;1.40;;;;;;;;;;4978332;28;20278;-65
2023/03/25 20:36:10;;;;;;;1.92;1.33;;;;;;;;;;4979044;28;20278;-64
2023/03/25 20:38:37;;;;;;;1.42;1.15;;;;;;;;;;4978647;28;20319;-64
2023/03/25 20:41:05;;;;;;;1.45;0.88;;;;;;;;;;4978350;28;20219;-64
2023/03/25 20:43:33;;;;;;;2.22;0.85;;;;;;;;;;4978466;28;20262;-63
2023/03/25 20:46:00;;;;;;;1.45;0.85;;;;;;;;;;4978188;28;20322;-65
2023/03/25 20:48:27;;;;;;;1.17;0.90;;;;;;;;;;4979584;28;20207;-62
2023/03/25 20:51:02;;;;;;;4.40;1.35;;;;;;;;;;4978775;28;20211;-65
2023/03/25 20:53:30;;;;;;;0.85;0.80;;;;;;;;;;4978269;28;20709;-64
2023/03/25 20:55:57;;;;;;;0.70;0.70;;;;;;;;;;4978120;28;20229;-64
2023/03/25 20:58:25;;;;;;;0.95;0.60;;;;;;;;;;4978498;28;20679;-64
2023/03/25 21:00:54;;;;;;;2.28;0.90;;;;;;;;;;4978383;28;20207;-63
2023/03/25 21:03:21;;;;;;;1.25;1.00;;;;;;;;;;4978767;28;20203;-63
2023/03/25 21:05:49;;;;;;;2.95;1.40;;;;;;;;;;4978216;28;20223;-63
2023/03/25 21:08:17;;;;;;;3.38;1.50;;;;;;;;;;4978436;28;20574;-62
2023/03/25 21:10:46;;;;;;;2.30;1.15;;;;;;;;;;4978661;28;20210;-62
2023/03/25 21:13:13;;;;;;;3.33;1.25;;;;;;;;;;4978339;28;20238;-63
2023/03/25 21:15:40;;;;;;;1.85;0.88;;;;;;;;;;4978315;28;20219;-65
2023/03/25 21:18:09;;;;;;;2.15;1.80;;;;;;;;;;4978071;28;20206;-64
2023/03/25 21:20:36;;;;;;;2.35;2.05;;;;;;;;;;4978387;28;20200;-64
2023/03/25 21:23:04;;;;;;;3.85;2.10;;;;;;;;;;4978205;28;20206;-65
2023/03/25 21:25:34;;;;;;;3.30;1.42;;;;;;;;;;4977762;28;20309;-64
2023/03/25 21:28:01;;;;;;;0.80;0.80;;;;;;;;;;4977917;28;20262;-64
2023/03/25 21:30:28;;;;;;;3.75;0.80;;;;;;;;;;4978065;28;20290;-63
2023/03/25 21:32:55;;;;;;;1.92;0.85;;;;;;;;;;4977707;28;20203;-64
2023/03/25 21:35:22;;;;;;;3.22;0.88;;;;;;;;;;4977303;28;20227;-64
2023/03/25 21:37:50;;;;;;;2.95;0.85;;;;;;;;;;4977095;28;20203;-64
2023/03/25 21:40:17;;;;;;;2.08;0.82;;;;;;;;;;4977201;28;20203;-63
2023/03/25 21:42:47;;;;;;;2.83;0.90;;;;;;;;;;4976548;28;20572;-63
2023/03/25 21:45:15;;;;;;;2.00;1.65;;;;;;;;;;4976285;28;20230;-66
2023/03/25 21:47:42;;;;;;;3.28;1.10;;;;;;;;;;4976748;28;20203;-65
2023/03/25 21:50:10;;;;;;;1.33;1.02;;;;;;;;;;4976322;28;20207;-66
2023/03/25 21:52:41;;;;;;;3.38;0.80;;;;;;;;;;4976749;28;20203;-66
2023/03/25 21:55:09;;;;;;;2.05;0.80;;;;;;;;;;4976471;28;20220;-65
2023/03/25 21:57:37;;;;;;;1.17;1.15;;;;;;;;;;4976622;28;20259;-65
2023/03/25 22:00:07;;;;;;;0.80;0.80;;;;;;;;;;4976210;28;20671;-65
2023/03/25 22:02:35;;;;;;;0.70;0.70;;;;;;;;;;4976433;28;20618;-65
2023/03/25 22:05:02;;;;;;;2.83;0.93;;;;;;;;;;4977329;28;20219;-66
2023/03/25 22:07:29;;;;;;;2.03;0.90;;;;;;;;;;4976501;28;20207;-67
2023/03/25 22:09:56;;;;;;;2.55;0.88;;;;;;;;;;4976296;28;20254;-67
2023/03/25 22:12:23;;;;;;;1.70;0.70;;;;;;;;;;4976154;28;20207;-66
2023/03/25 22:14:50;;;;;;;1.85;0.80;;;;;;;;;;4976099;28;20228;-65
2023/03/25 22:17:19;;;;;;;1.85;0.75;;;;;;;;;;4976154;28;20203;-64
2023/03/25 22:19:47;;;;;;;1.42;1.33;;;;;;;;;;4976000;28;20211;-66
2023/03/25 22:22:17;;;;;;;3.38;1.02;;;;;;;;;;4975643;28;20615;-65
2023/03/25 22:24:45;;;;;;;2.00;1.17;;;;;;;;;;4976016;28;20219;-64
2023/03/25 22:27:12;;;;;;;1.27;0.93;;;;;;;;;;4975673;28;20206;-66
2023/03/25 22:29:39;;;;;;;2.30;0.75;;;;;;;;;;4975969;28;20207;-65
2023/03/25 22:32:06;;;;;;;2.80;1.13;;;;;;;;;;4975771;28;20210;-65
2023/03/25 22:34:35;;;;;;;3.33;1.05;;;;;;;;;;4975280;28;20626;-66
2023/03/25 22:37:03;;;;;;;2.50;1.10;;;;;;;;;;4975629;28;20203;-66
2023/03/25 22:39:30;;;;;;;1.15;1.00;;;;;;;;;;4975585;28;20206;-65
2023/03/25 22:41:57;;;;;;;1.27;1.17;;;;;;;;;;4975489;28;20207;-65
2023/03/25 22:44:25;;;;;;;2.83;0.88;;;;;;;;;;4975295;28;20358;-66
2023/03/25 22:46:52;;;;;;;3.97;1.35;;;;;;;;;;4975398;28;20290;-65
2023/03/25 22:49:20;;;;;;;3.58;1.45;;;;;;;;;;4975381;28;20208;-64
2023/03/25 22:51:49;;;;;;;3.92;1.45;;;;;;;;;;4975316;28;20207;-65
2023/03/25 22:54:16;;;;;;;4.25;1.67;;;;;;;;;;4975157;28;20650;-65
2023/03/25 22:56:43;;;;;;;1.65;0.90;;;;;;;;;;4974358;28;20258;-65
2023/03/25 22:59:11;;;;;;;3.28;1.05;;;;;;;;;;4975157;28;20203;-65
2023/03/25 23:01:38;;;;;;;1.17;0.95;;;;;;;;;;4975188;28;20739;-65
2023/03/25 23:04:05;;;;;;;1.67;0.98;;;;;;;;;;4975034;28;20203;-65
2023/03/25 23:06:34;;;;;;;2.17;1.20;;;;;;;;;;4975052;28;20613;-65
2023/03/25 23:09:03;;;;;;;2.15;1.10;;;;;;;;;;4974990;28;20231;-65
2023/03/25 23:11:30;;;;;;;3.25;1.23;;;;;;;;;;4974641;28;20739;-65
2023/03/25 23:13:58;;;;;;;2.70;1.90;;;;;;;;;;4974677;28;20625;-66
2023/03/25 23:16:27;;;;;;;4.90;1.92;;;;;;;;;;4974927;28;20271;-66
2023/03/25 23:18:54;;;;;;;3.42;2.13;;;;;;;;;;4975437;28;20213;-66
2023/03/25 23:21:24;;;;;;;2.55;1.35;;;;;;;;;;4979289;28;20258;-66
2023/03/25 23:23:52;;;;;;;2.92;1.60;;;;;;;;;;4977740;28;20250;-65
2023/03/25 23:26:23;;;;;;;2.50;1.20;;;;;;;;;;4978014;28;20608;-65
2023/03/25 23:28:51;;;;;;;1.50;1.33;;;;;;;;;;4974517;28;20239;-65
2023/03/25 23:31:19;;;;;;;4.05;1.95;;;;;;;;;;4974475;28;20686;-65
2023/03/25 23:33:46;;;;;;;2.55;1.60;;;;;;;;;;4974398;28;20803;-65
2023/03/25 23:36:14;;;;;;;1.63;1.48;;;;;;;;;;4974615;28;20266;-65
2023/03/25 23:38:42;;;;;;;2.78;1.05;;;;;;;;;;4974742;28;20258;-65
2023/03/25 23:41:11;;;;;;;1.52;1.25;;;;;;;;;;4974375;28;20565;-65
2023/03/25 23:43:40;;;;;;;2.15;1.10;;;;;;;;;;4974515;28;20207;-65